sensor_id;sensor_type;location;lat;lon;timestamp;P1;durP1;ratioP1;P2;durP2;ratioP2
52858;SDS011;38721;53.098;6.596;2023-02-11T00:01:34;22.15;;;7.45;;
52858;SDS011;38721;53.098;6.596;2023-02-11T00:04:00;24.45;;;6.60;;
52858;SDS011;38721;53.098;6.596;2023-02-11T00:06:30;22.88;;;6.80;;
52858;SDS011;38721;53.098;6.596;2023-02-11T00:08:57;23.75;;;6.78;;
52858;SDS011;38721;53.098;6.596;2023-02-11T00:11:23;26.20;;;7.18;;
52858;SDS011;38721;53.098;6.596;2023-02-11T00:13:50;22.63;;;6.85;;
52858;SDS011;38721;53.098;6.596;2023-02-11T00:16:17;21.95;;;6.95;;
52858;SDS011;38721;53.098;6.596;2023-02-11T00:18:47;25.33;;;6.45;;
52858;SDS011;38721;53.098;6.596;2023-02-11T00:21:18;28.08;;;7.38;;
52858;SDS011;38721;53.098;6.596;2023-02-11T00:23:46;20.35;;;6.32;;
52858;SDS011;38721;53.098;6.596;2023-02-11T00:26:13;23.42;;;7.47;;
52858;SDS011;38721;53.098;6.596;2023-02-11T00:28:47;22.70;;;6.97;;
52858;SDS011;38721;53.098;6.596;2023-02-11T00:31:14;25.35;;;6.85;;
52858;SDS011;38721;53.098;6.596;2023-02-11T00:33:42;23.10;;;7.03;;
52858;SDS011;38721;53.098;6.596;2023-02-11T00:36:19;29.60;;;7.32;;
52858;SDS011;38721;53.098;6.596;2023-02-11T00:38:47;23.02;;;6.85;;
52858;SDS011;38721;53.098;6.596;2023-02-11T00:41:15;20.50;;;6.97;;
52858;SDS011;38721;53.098;6.596;2023-02-11T00:43:42;18.92;;;6.97;;
52858;SDS011;38721;53.098;6.596;2023-02-11T00:46:08;22.27;;;6.68;;
52858;SDS011;38721;53.098;6.596;2023-02-11T00:48:34;24.55;;;8.63;;
52858;SDS011;38721;53.098;6.596;2023-02-11T00:51:00;24.63;;;6.78;;
52858;SDS011;38721;53.098;6.596;2023-02-11T00:53:26;21.55;;;7.15;;
52858;SDS011;38721;53.098;6.596;2023-02-11T00:55:52;20.10;;;6.55;;
52858;SDS011;38721;53.098;6.596;2023-02-11T00:58:18;20.42;;;7.13;;
52858;SDS011;38721;53.098;6.596;2023-02-11T01:00:43;23.42;;;6.90;;
52858;SDS011;38721;53.098;6.596;2023-02-11T01:03:09;22.40;;;7.38;;
52858;SDS011;38721;53.098;6.596;2023-02-11T01:05:35;19.65;;;7.30;;
52858;SDS011;38721;53.098;6.596;2023-02-11T01:08:00;18.10;;;7.25;;
52858;SDS011;38721;53.098;6.596;2023-02-11T01:10:30;25.30;;;7.90;;
52858;SDS011;38721;53.098;6.596;2023-02-11T01:12:56;26.73;;;7.57;;
52858;SDS011;38721;53.098;6.596;2023-02-11T01:15:21;23.58;;;7.03;;
52858;SDS011;38721;53.098;6.596;2023-02-11T01:17:47;37.92;;;8.95;;
52858;SDS011;38721;53.098;6.596;2023-02-11T01:20:17;19.77;;;7.07;;
52858;SDS011;38721;53.098;6.596;2023-02-11T01:22:45;32.13;;;8.15;;
52858;SDS011;38721;53.098;6.596;2023-02-11T01:25:11;22.98;;;8.23;;
52858;SDS011;38721;53.098;6.596;2023-02-11T01:27:37;24.13;;;7.55;;
52858;SDS011;38721;53.098;6.596;2023-02-11T01:30:04;24.27;;;7.53;;
52858;SDS011;38721;53.098;6.596;2023-02-11T01:32:31;23.40;;;7.70;;
52858;SDS011;38721;53.098;6.596;2023-02-11T01:34:57;21.58;;;7.60;;
52858;SDS011;38721;53.098;6.596;2023-02-11T01:37:26;24.73;;;8.48;;
52858;SDS011;38721;53.098;6.596;2023-02-11T01:39:52;20.35;;;7.25;;
52858;SDS011;38721;53.098;6.596;2023-02-11T01:42:18;30.90;;;8.07;;
52858;SDS011;38721;53.098;6.596;2023-02-11T01:44:50;22.52;;;8.43;;
52858;SDS011;38721;53.098;6.596;2023-02-11T01:47:18;27.40;;;7.53;;
52858;SDS011;38721;53.098;6.596;2023-02-11T01:49:45;26.55;;;7.40;;
52858;SDS011;38721;53.098;6.596;2023-02-11T01:54:53;32.45;;;8.55;;
52858;SDS011;38721;53.098;6.596;2023-02-11T01:57:42;24.13;;;8.13;;
52858;SDS011;38721;53.098;6.596;2023-02-11T02:00:16;21.25;;;8.07;;
52858;SDS011;38721;53.098;6.596;2023-02-11T02:08:15;24.73;;;7.85;;
52858;SDS011;38721;53.098;6.596;2023-02-11T02:10:46;26.33;;;8.68;;
52858;SDS011;38721;53.098;6.596;2023-02-11T02:13:17;27.35;;;8.57;;
52858;SDS011;38721;53.098;6.596;2023-02-11T02:15:44;23.63;;;8.82;;
52858;SDS011;38721;53.098;6.596;2023-02-11T02:18:28;26.88;;;8.43;;
52858;SDS011;38721;53.098;6.596;2023-02-11T02:38:26;23.95;;;10.07;;
52858;SDS011;38721;53.098;6.596;2023-02-11T02:41:11;29.00;;;10.73;;
52858;SDS011;38721;53.098;6.596;2023-02-11T02:43:41;24.83;;;9.80;;
52858;SDS011;38721;53.098;6.596;2023-02-11T02:48:37;26.30;;;10.35;;
52858;SDS011;38721;53.098;6.596;2023-02-11T02:59:32;27.30;;;12.40;;
52858;SDS011;38721;53.098;6.596;2023-02-11T03:02:09;34.75;;;13.40;;
52858;SDS011;38721;53.098;6.596;2023-02-11T03:07:47;34.63;;;13.93;;
52858;SDS011;38721;53.098;6.596;2023-02-11T03:10:22;30.50;;;13.63;;
52858;SDS011;38721;53.098;6.596;2023-02-11T03:12:53;27.20;;;12.25;;
52858;SDS011;38721;53.098;6.596;2023-02-11T03:15:20;32.15;;;14.60;;
52858;SDS011;38721;53.098;6.596;2023-02-11T03:17:49;35.20;;;15.13;;
52858;SDS011;38721;53.098;6.596;2023-02-11T03:20:18;29.85;;;13.98;;
52858;SDS011;38721;53.098;6.596;2023-02-11T03:22:48;28.80;;;14.63;;
52858;SDS011;38721;53.098;6.596;2023-02-11T03:25:21;33.88;;;15.15;;
52858;SDS011;38721;53.098;6.596;2023-02-11T03:27:56;29.63;;;15.88;;
52858;SDS011;38721;53.098;6.596;2023-02-11T03:30:42;27.98;;;14.25;;
52858;SDS011;38721;53.098;6.596;2023-02-11T03:33:15;35.90;;;15.93;;
52858;SDS011;38721;53.098;6.596;2023-02-11T03:35:49;34.45;;;16.60;;
52858;SDS011;38721;53.098;6.596;2023-02-11T03:38:20;37.00;;;16.88;;
52858;SDS011;38721;53.098;6.596;2023-02-11T03:40:50;33.83;;;17.65;;
52858;SDS011;38721;53.098;6.596;2023-02-11T03:43:19;28.23;;;16.10;;
52858;SDS011;38721;53.098;6.596;2023-02-11T03:45:50;32.03;;;16.70;;
52858;SDS011;38721;53.098;6.596;2023-02-11T03:48:23;37.20;;;16.92;;
52858;SDS011;38721;53.098;6.596;2023-02-11T03:50:52;34.42;;;17.58;;
52858;SDS011;38721;53.098;6.596;2023-02-11T03:53:21;41.28;;;19.15;;
52858;SDS011;38721;53.098;6.596;2023-02-11T03:55:47;31.95;;;17.40;;
52858;SDS011;38721;53.098;6.596;2023-02-11T03:58:15;34.67;;;17.98;;
52858;SDS011;38721;53.098;6.596;2023-02-11T04:00:43;39.67;;;18.40;;
52858;SDS011;38721;53.098;6.596;2023-02-11T04:03:09;33.35;;;16.88;;
52858;SDS011;38721;53.098;6.596;2023-02-11T04:05:36;33.50;;;18.05;;
52858;SDS011;38721;53.098;6.596;2023-02-11T04:08:02;36.63;;;17.30;;
52858;SDS011;38721;53.098;6.596;2023-02-11T04:10:28;37.45;;;17.83;;
52858;SDS011;38721;53.098;6.596;2023-02-11T04:12:54;31.15;;;17.80;;
52858;SDS011;38721;53.098;6.596;2023-02-11T04:15:20;38.05;;;18.45;;
52858;SDS011;38721;53.098;6.596;2023-02-11T04:17:46;34.60;;;17.60;;
52858;SDS011;38721;53.098;6.596;2023-02-11T04:20:11;38.10;;;18.40;;
52858;SDS011;38721;53.098;6.596;2023-02-11T04:22:37;40.03;;;19.75;;
52858;SDS011;38721;53.098;6.596;2023-02-11T04:25:04;37.55;;;18.42;;
52858;SDS011;38721;53.098;6.596;2023-02-11T04:27:30;33.97;;;18.35;;
52858;SDS011;38721;53.098;6.596;2023-02-11T04:30:00;36.83;;;18.40;;
52858;SDS011;38721;53.098;6.596;2023-02-11T04:32:26;40.50;;;18.38;;
52858;SDS011;38721;53.098;6.596;2023-02-11T04:34:51;39.22;;;18.27;;
52858;SDS011;38721;53.098;6.596;2023-02-11T04:37:18;38.00;;;19.83;;
52858;SDS011;38721;53.098;6.596;2023-02-11T04:39:44;40.67;;;19.58;;
52858;SDS011;38721;53.098;6.596;2023-02-11T04:42:10;38.75;;;18.58;;
52858;SDS011;38721;53.098;6.596;2023-02-11T04:44:36;39.55;;;18.30;;
52858;SDS011;38721;53.098;6.596;2023-02-11T04:47:02;35.13;;;18.42;;
52858;SDS011;38721;53.098;6.596;2023-02-11T04:49:27;40.33;;;18.15;;
52858;SDS011;38721;53.098;6.596;2023-02-11T04:51:53;37.28;;;18.17;;
52858;SDS011;38721;53.098;6.596;2023-02-11T04:54:19;40.17;;;19.27;;
52858;SDS011;38721;53.098;6.596;2023-02-11T04:56:46;32.53;;;18.70;;
52858;SDS011;38721;53.098;6.596;2023-02-11T04:59:12;33.70;;;16.83;;
52858;SDS011;38721;53.098;6.596;2023-02-11T05:01:38;32.10;;;18.02;;
52858;SDS011;38721;53.098;6.596;2023-02-11T05:04:04;35.83;;;18.75;;
52858;SDS011;38721;53.098;6.596;2023-02-11T05:06:30;36.83;;;18.23;;
52858;SDS011;38721;53.098;6.596;2023-02-11T05:08:55;42.63;;;17.80;;
52858;SDS011;38721;53.098;6.596;2023-02-11T05:11:22;33.45;;;17.42;;
52858;SDS011;38721;53.098;6.596;2023-02-11T05:13:49;37.88;;;17.77;;
52858;SDS011;38721;53.098;6.596;2023-02-11T05:16:15;36.90;;;18.77;;
52858;SDS011;38721;53.098;6.596;2023-02-11T05:18:42;34.78;;;18.85;;
52858;SDS011;38721;53.098;6.596;2023-02-11T05:21:13;37.53;;;17.75;;
52858;SDS011;38721;53.098;6.596;2023-02-11T05:23:40;39.30;;;18.08;;
52858;SDS011;38721;53.098;6.596;2023-02-11T05:26:07;33.70;;;18.20;;
52858;SDS011;38721;53.098;6.596;2023-02-11T05:28:33;36.25;;;18.02;;
52858;SDS011;38721;53.098;6.596;2023-02-11T05:31:02;32.97;;;19.08;;
52858;SDS011;38721;53.098;6.596;2023-02-11T05:33:29;38.17;;;18.65;;
52858;SDS011;38721;53.098;6.596;2023-02-11T05:35:58;35.38;;;18.50;;
52858;SDS011;38721;53.098;6.596;2023-02-11T05:38:28;41.42;;;20.48;;
52858;SDS011;38721;53.098;6.596;2023-02-11T05:40:53;32.58;;;18.02;;
52858;SDS011;38721;53.098;6.596;2023-02-11T05:43:19;39.55;;;18.20;;
52858;SDS011;38721;53.098;6.596;2023-02-11T05:45:45;38.28;;;18.08;;
52858;SDS011;38721;53.098;6.596;2023-02-11T05:48:11;38.22;;;19.45;;
52858;SDS011;38721;53.098;6.596;2023-02-11T05:50:37;40.65;;;18.98;;
52858;SDS011;38721;53.098;6.596;2023-02-11T05:53:03;37.67;;;18.13;;
52858;SDS011;38721;53.098;6.596;2023-02-11T05:55:29;34.50;;;18.02;;
52858;SDS011;38721;53.098;6.596;2023-02-11T05:57:56;39.53;;;19.33;;
52858;SDS011;38721;53.098;6.596;2023-02-11T06:00:21;35.42;;;19.17;;
52858;SDS011;38721;53.098;6.596;2023-02-11T06:02:47;56.30;;;19.60;;
52858;SDS011;38721;53.098;6.596;2023-02-11T06:05:13;37.08;;;18.38;;
52858;SDS011;38721;53.098;6.596;2023-02-11T06:07:38;35.90;;;18.85;;
52858;SDS011;38721;53.098;6.596;2023-02-11T06:10:04;35.55;;;19.02;;
52858;SDS011;38721;53.098;6.596;2023-02-11T06:12:31;39.85;;;18.38;;
52858;SDS011;38721;53.098;6.596;2023-02-11T06:14:56;33.25;;;18.83;;
52858;SDS011;38721;53.098;6.596;2023-02-11T06:17:22;40.35;;;18.60;;
52858;SDS011;38721;53.098;6.596;2023-02-11T06:19:49;36.20;;;19.00;;
52858;SDS011;38721;53.098;6.596;2023-02-11T06:22:15;33.45;;;16.98;;
52858;SDS011;38721;53.098;6.596;2023-02-11T06:24:41;37.53;;;19.48;;
52858;SDS011;38721;53.098;6.596;2023-02-11T06:27:06;38.95;;;19.30;;
52858;SDS011;38721;53.098;6.596;2023-02-11T06:29:32;39.70;;;19.77;;
52858;SDS011;38721;53.098;6.596;2023-02-11T06:31:58;38.33;;;20.05;;
52858;SDS011;38721;53.098;6.596;2023-02-11T06:34:24;46.00;;;20.20;;
52858;SDS011;38721;53.098;6.596;2023-02-11T06:36:49;41.15;;;19.50;;
52858;SDS011;38721;53.098;6.596;2023-02-11T06:39:18;34.55;;;20.08;;
52858;SDS011;38721;53.098;6.596;2023-02-11T06:41:44;42.97;;;20.05;;
52858;SDS011;38721;53.098;6.596;2023-02-11T06:44:09;40.80;;;19.77;;
52858;SDS011;38721;53.098;6.596;2023-02-11T06:46:35;43.40;;;18.33;;
52858;SDS011;38721;53.098;6.596;2023-02-11T06:49:01;39.03;;;19.15;;
52858;SDS011;38721;53.098;6.596;2023-02-11T06:51:27;36.38;;;19.33;;
52858;SDS011;38721;53.098;6.596;2023-02-11T06:53:52;35.65;;;19.35;;
52858;SDS011;38721;53.098;6.596;2023-02-11T06:56:20;43.40;;;20.02;;
52858;SDS011;38721;53.098;6.596;2023-02-11T06:58:50;38.78;;;20.40;;
52858;SDS011;38721;53.098;6.596;2023-02-11T07:01:18;41.20;;;20.10;;
52858;SDS011;38721;53.098;6.596;2023-02-11T07:03:44;36.75;;;20.75;;
52858;SDS011;38721;53.098;6.596;2023-02-11T07:06:14;41.63;;;19.90;;
52858;SDS011;38721;53.098;6.596;2023-02-11T07:08:45;45.03;;;21.88;;
52858;SDS011;38721;53.098;6.596;2023-02-11T07:11:12;44.83;;;20.27;;
52858;SDS011;38721;53.098;6.596;2023-02-11T07:13:48;44.05;;;20.92;;
52858;SDS011;38721;53.098;6.596;2023-02-11T07:16:15;40.40;;;19.67;;
52858;SDS011;38721;53.098;6.596;2023-02-11T07:18:42;49.83;;;22.23;;
52858;SDS011;38721;53.098;6.596;2023-02-11T07:21:13;42.80;;;21.20;;
52858;SDS011;38721;53.098;6.596;2023-02-11T07:23:40;45.90;;;21.25;;
52858;SDS011;38721;53.098;6.596;2023-02-11T07:26:07;46.40;;;21.35;;
52858;SDS011;38721;53.098;6.596;2023-02-11T07:28:35;44.72;;;20.92;;
52858;SDS011;38721;53.098;6.596;2023-02-11T07:31:09;43.92;;;21.70;;
52858;SDS011;38721;53.098;6.596;2023-02-11T07:33:39;47.85;;;21.92;;
52858;SDS011;38721;53.098;6.596;2023-02-11T07:36:06;46.22;;;21.85;;
52858;SDS011;38721;53.098;6.596;2023-02-11T07:38:34;39.40;;;21.52;;
52858;SDS011;38721;53.098;6.596;2023-02-11T07:41:01;45.78;;;22.25;;
52858;SDS011;38721;53.098;6.596;2023-02-11T07:43:29;46.65;;;20.77;;
52858;SDS011;38721;53.098;6.596;2023-02-11T07:45:58;44.28;;;21.65;;
52858;SDS011;38721;53.098;6.596;2023-02-11T07:48:24;42.83;;;22.02;;
52858;SDS011;38721;53.098;6.596;2023-02-11T07:50:49;41.70;;;20.98;;
52858;SDS011;38721;53.098;6.596;2023-02-11T07:53:15;41.83;;;21.20;;
52858;SDS011;38721;53.098;6.596;2023-02-11T07:55:41;41.08;;;21.38;;
52858;SDS011;38721;53.098;6.596;2023-02-11T07:58:07;39.50;;;21.58;;
52858;SDS011;38721;53.098;6.596;2023-02-11T08:00:33;40.50;;;21.67;;
52858;SDS011;38721;53.098;6.596;2023-02-11T08:02:59;42.00;;;19.60;;
52858;SDS011;38721;53.098;6.596;2023-02-11T08:05:28;45.38;;;20.55;;
52858;SDS011;38721;53.098;6.596;2023-02-11T08:07:54;41.53;;;21.92;;
52858;SDS011;38721;53.098;6.596;2023-02-11T08:10:20;39.38;;;21.67;;
52858;SDS011;38721;53.098;6.596;2023-02-11T08:12:46;41.35;;;22.17;;
52858;SDS011;38721;53.098;6.596;2023-02-11T08:15:12;37.63;;;21.52;;
52858;SDS011;38721;53.098;6.596;2023-02-11T08:17:38;42.13;;;22.52;;
52858;SDS011;38721;53.098;6.596;2023-02-11T08:20:04;40.67;;;20.63;;
52858;SDS011;38721;53.098;6.596;2023-02-11T08:22:31;44.60;;;22.17;;
52858;SDS011;38721;53.098;6.596;2023-02-11T08:24:57;41.83;;;21.10;;
52858;SDS011;38721;53.098;6.596;2023-02-11T08:27:23;40.55;;;22.38;;
52858;SDS011;38721;53.098;6.596;2023-02-11T08:29:50;43.75;;;22.48;;
52858;SDS011;38721;53.098;6.596;2023-02-11T08:32:17;39.20;;;20.60;;
52858;SDS011;38721;53.098;6.596;2023-02-11T08:34:42;41.05;;;22.98;;
52858;SDS011;38721;53.098;6.596;2023-02-11T08:37:09;37.47;;;21.17;;
52858;SDS011;38721;53.098;6.596;2023-02-11T08:39:34;42.35;;;21.08;;
52858;SDS011;38721;53.098;6.596;2023-02-11T08:42:00;42.15;;;21.73;;
52858;SDS011;38721;53.098;6.596;2023-02-11T08:44:26;41.33;;;20.40;;
52858;SDS011;38721;53.098;6.596;2023-02-11T08:46:52;47.08;;;20.17;;
52858;SDS011;38721;53.098;6.596;2023-02-11T08:49:18;36.33;;;21.33;;
52858;SDS011;38721;53.098;6.596;2023-02-11T08:51:45;37.63;;;19.95;;
52858;SDS011;38721;53.098;6.596;2023-02-11T08:54:12;36.58;;;19.38;;
52858;SDS011;38721;53.098;6.596;2023-02-11T08:56:38;38.22;;;19.80;;
52858;SDS011;38721;53.098;6.596;2023-02-11T08:59:05;33.83;;;19.88;;
52858;SDS011;38721;53.098;6.596;2023-02-11T09:01:31;33.00;;;18.67;;
52858;SDS011;38721;53.098;6.596;2023-02-11T09:03:58;35.58;;;20.52;;
52858;SDS011;38721;53.098;6.596;2023-02-11T09:06:25;39.45;;;19.00;;
52858;SDS011;38721;53.098;6.596;2023-02-11T09:08:52;32.88;;;19.17;;
52858;SDS011;38721;53.098;6.596;2023-02-11T09:11:20;35.75;;;19.40;;
52858;SDS011;38721;53.098;6.596;2023-02-11T09:13:49;33.80;;;19.25;;
52858;SDS011;38721;53.098;6.596;2023-02-11T09:16:18;32.03;;;18.75;;
52858;SDS011;38721;53.098;6.596;2023-02-11T09:18:47;31.88;;;18.60;;
52858;SDS011;38721;53.098;6.596;2023-02-11T09:21:13;36.55;;;18.65;;
52858;SDS011;38721;53.098;6.596;2023-02-11T09:23:40;32.75;;;17.88;;
52858;SDS011;38721;53.098;6.596;2023-02-11T09:26:08;37.55;;;17.95;;
52858;SDS011;38721;53.098;6.596;2023-02-11T09:28:45;35.67;;;17.95;;
52858;SDS011;38721;53.098;6.596;2023-02-11T09:31:12;29.98;;;16.60;;
52858;SDS011;38721;53.098;6.596;2023-02-11T09:33:43;31.70;;;18.08;;
52858;SDS011;38721;53.098;6.596;2023-02-11T09:36:14;30.40;;;15.63;;
52858;SDS011;38721;53.098;6.596;2023-02-11T09:38:44;34.05;;;17.88;;
52858;SDS011;38721;53.098;6.596;2023-02-11T09:43:59;36.88;;;17.40;;
52858;SDS011;38721;53.098;6.596;2023-02-11T09:46:30;25.25;;;14.90;;
52858;SDS011;38721;53.098;6.596;2023-02-11T09:49:02;34.08;;;16.88;;
52858;SDS011;38721;53.098;6.596;2023-02-11T09:51:38;31.30;;;15.93;;
52858;SDS011;38721;53.098;6.596;2023-02-11T09:54:33;30.00;;;15.02;;
52858;SDS011;38721;53.098;6.596;2023-02-11T09:57:00;32.80;;;15.35;;
52858;SDS011;38721;53.098;6.596;2023-02-11T09:59:26;30.65;;;16.23;;
52858;SDS011;38721;53.098;6.596;2023-02-11T10:01:53;25.63;;;14.68;;
52858;SDS011;38721;53.098;6.596;2023-02-11T10:07:44;25.45;;;13.95;;
52858;SDS011;38721;53.098;6.596;2023-02-11T10:24:41;28.98;;;13.38;;
52858;SDS011;38721;53.098;6.596;2023-02-11T10:27:21;23.45;;;13.02;;
52858;SDS011;38721;53.098;6.596;2023-02-11T10:29:54;30.33;;;13.40;;
52858;SDS011;38721;53.098;6.596;2023-02-11T10:34:59;20.38;;;12.07;;
52858;SDS011;38721;53.098;6.596;2023-02-11T10:37:28;22.55;;;11.95;;
52858;SDS011;38721;53.098;6.596;2023-02-11T10:39:54;23.27;;;11.80;;
52858;SDS011;38721;53.098;6.596;2023-02-11T10:42:20;22.05;;;11.90;;
52858;SDS011;38721;53.098;6.596;2023-02-11T10:44:59;19.80;;;11.52;;
52858;SDS011;38721;53.098;6.596;2023-02-11T10:47:29;20.65;;;11.10;;
52858;SDS011;38721;53.098;6.596;2023-02-11T10:49:59;17.83;;;11.50;;
52858;SDS011;38721;53.098;6.596;2023-02-11T10:52:27;21.77;;;11.13;;
52858;SDS011;38721;53.098;6.596;2023-02-11T10:54:58;18.90;;;9.93;;
52858;SDS011;38721;53.098;6.596;2023-02-11T10:57:48;21.33;;;10.05;;
52858;SDS011;38721;53.098;6.596;2023-02-11T11:00:26;19.17;;;9.80;;
52858;SDS011;38721;53.098;6.596;2023-02-11T11:02:58;18.90;;;9.75;;
52858;SDS011;38721;53.098;6.596;2023-02-11T11:05:27;21.88;;;10.35;;
52858;SDS011;38721;53.098;6.596;2023-02-11T11:07:59;16.80;;;8.63;;
52858;SDS011;38721;53.098;6.596;2023-02-11T11:10:35;27.48;;;9.00;;
52858;SDS011;38721;53.098;6.596;2023-02-11T11:15:53;20.52;;;9.57;;
52858;SDS011;38721;53.098;6.596;2023-02-11T11:18:42;17.85;;;8.07;;
52858;SDS011;38721;53.098;6.596;2023-02-11T11:21:18;20.13;;;8.63;;
52858;SDS011;38721;53.098;6.596;2023-02-11T11:23:51;18.13;;;7.97;;
52858;SDS011;38721;53.098;6.596;2023-02-11T11:26:23;16.00;;;7.28;;
52858;SDS011;38721;53.098;6.596;2023-02-11T11:28:55;18.60;;;7.57;;
52858;SDS011;38721;53.098;6.596;2023-02-11T11:31:31;22.77;;;7.13;;
52858;SDS011;38721;53.098;6.596;2023-02-11T11:34:00;13.52;;;6.28;;
52858;SDS011;38721;53.098;6.596;2023-02-11T11:36:46;15.15;;;6.70;;
52858;SDS011;38721;53.098;6.596;2023-02-11T11:39:17;19.35;;;5.72;;
52858;SDS011;38721;53.098;6.596;2023-02-11T11:41:52;16.42;;;5.65;;
52858;SDS011;38721;53.098;6.596;2023-02-11T11:44:24;13.00;;;4.57;;
52858;SDS011;38721;53.098;6.596;2023-02-11T11:46:53;14.57;;;5.03;;
52858;SDS011;38721;53.098;6.596;2023-02-11T11:49:34;13.40;;;4.97;;
52858;SDS011;38721;53.098;6.596;2023-02-11T11:52:36;12.95;;;4.97;;
52858;SDS011;38721;53.098;6.596;2023-02-11T11:55:12;13.32;;;4.68;;
52858;SDS011;38721;53.098;6.596;2023-02-11T11:57:45;15.20;;;4.90;;
52858;SDS011;38721;53.098;6.596;2023-02-11T12:06:04;15.68;;;4.57;;
52858;SDS011;38721;53.098;6.596;2023-02-11T12:09:14;13.82;;;4.65;;
52858;SDS011;38721;53.098;6.596;2023-02-11T12:28:35;17.38;;;5.00;;
52858;SDS011;38721;53.098;6.596;2023-02-11T12:31:25;14.40;;;5.72;;
52858;SDS011;38721;53.098;6.596;2023-02-11T12:40:08;18.83;;;5.82;;
52858;SDS011;38721;53.098;6.596;2023-02-11T12:51:30;15.82;;;4.75;;
52858;SDS011;38721;53.098;6.596;2023-02-11T13:05:26;11.32;;;4.35;;
52858;SDS011;38721;53.098;6.596;2023-02-11T13:08:18;15.15;;;4.35;;
52858;SDS011;38721;53.098;6.596;2023-02-11T13:13:50;15.05;;;4.25;;
52858;SDS011;38721;53.098;6.596;2023-02-11T13:16:42;9.23;;;3.67;;
52858;SDS011;38721;53.098;6.596;2023-02-11T13:22:34;16.58;;;4.07;;
52858;SDS011;38721;53.098;6.596;2023-02-11T13:28:22;8.60;;;3.22;;
52858;SDS011;38721;53.098;6.596;2023-02-11T13:30:54;14.00;;;3.97;;
52858;SDS011;38721;53.098;6.596;2023-02-11T13:33:30;14.93;;;3.60;;
52858;SDS011;38721;53.098;6.596;2023-02-11T13:38:30;11.30;;;3.28;;
52858;SDS011;38721;53.098;6.596;2023-02-11T13:43:40;19.10;;;3.67;;
52858;SDS011;38721;53.098;6.596;2023-02-11T13:46:09;13.10;;;3.40;;
52858;SDS011;38721;53.098;6.596;2023-02-11T13:48:50;14.57;;;3.10;;
52858;SDS011;38721;53.098;6.596;2023-02-11T13:54:21;14.57;;;2.92;;
52858;SDS011;38721;53.098;6.596;2023-02-11T13:57:22;13.25;;;2.85;;
52858;SDS011;38721;53.098;6.596;2023-02-11T13:59:53;20.65;;;4.20;;
52858;SDS011;38721;53.098;6.596;2023-02-11T14:02:34;13.00;;;3.17;;
52858;SDS011;38721;53.098;6.596;2023-02-11T14:05:24;14.25;;;3.65;;
52858;SDS011;38721;53.098;6.596;2023-02-11T14:08:12;11.68;;;3.08;;
52858;SDS011;38721;53.098;6.596;2023-02-11T14:11:00;10.90;;;2.70;;
52858;SDS011;38721;53.098;6.596;2023-02-11T14:13:35;14.73;;;3.25;;
52858;SDS011;38721;53.098;6.596;2023-02-11T14:16:23;18.15;;;3.58;;
52858;SDS011;38721;53.098;6.596;2023-02-11T14:29:17;16.48;;;3.00;;
52858;SDS011;38721;53.098;6.596;2023-02-11T14:32:08;11.90;;;2.93;;
52858;SDS011;38721;53.098;6.596;2023-02-11T14:34:50;11.20;;;3.10;;
52858;SDS011;38721;53.098;6.596;2023-02-11T14:40:47;18.58;;;3.33;;
52858;SDS011;38721;53.098;6.596;2023-02-11T14:43:24;16.92;;;3.92;;
52858;SDS011;38721;53.098;6.596;2023-02-11T14:45:57;11.45;;;2.90;;
52858;SDS011;38721;53.098;6.596;2023-02-11T14:48:27;11.48;;;2.92;;
52858;SDS011;38721;53.098;6.596;2023-02-11T14:51:02;13.20;;;4.10;;
52858;SDS011;38721;53.098;6.596;2023-02-11T14:53:34;12.13;;;3.20;;
52858;SDS011;38721;53.098;6.596;2023-02-11T14:56:02;18.48;;;3.13;;
52858;SDS011;38721;53.098;6.596;2023-02-11T14:58:43;11.90;;;3.40;;
52858;SDS011;38721;53.098;6.596;2023-02-11T15:01:28;16.38;;;3.75;;
52858;SDS011;38721;53.098;6.596;2023-02-11T15:04:03;13.30;;;3.47;;
52858;SDS011;38721;53.098;6.596;2023-02-11T15:09:04;13.50;;;3.63;;
52858;SDS011;38721;53.098;6.596;2023-02-11T15:11:31;14.35;;;3.28;;
52858;SDS011;38721;53.098;6.596;2023-02-11T15:14:18;13.57;;;3.17;;
52858;SDS011;38721;53.098;6.596;2023-02-11T15:16:58;14.40;;;3.35;;
52858;SDS011;38721;53.098;6.596;2023-02-11T15:19:31;13.88;;;3.35;;
52858;SDS011;38721;53.098;6.596;2023-02-11T15:22:26;11.02;;;2.80;;
52858;SDS011;38721;53.098;6.596;2023-02-11T15:25:13;15.45;;;3.22;;
52858;SDS011;38721;53.098;6.596;2023-02-11T15:27:42;13.73;;;2.80;;
52858;SDS011;38721;53.098;6.596;2023-02-11T15:32:57;16.00;;;3.28;;
52858;SDS011;38721;53.098;6.596;2023-02-11T15:35:28;15.02;;;3.28;;
52858;SDS011;38721;53.098;6.596;2023-02-11T15:37:55;16.08;;;2.90;;
52858;SDS011;38721;53.098;6.596;2023-02-11T15:40:27;11.25;;;2.90;;
52858;SDS011;38721;53.098;6.596;2023-02-11T15:43:03;12.48;;;2.70;;
52858;SDS011;38721;53.098;6.596;2023-02-11T15:45:35;12.25;;;3.28;;
52858;SDS011;38721;53.098;6.596;2023-02-11T15:48:24;14.18;;;3.22;;
52858;SDS011;38721;53.098;6.596;2023-02-11T15:53:53;9.82;;;3.17;;
52858;SDS011;38721;53.098;6.596;2023-02-11T15:56:28;13.90;;;3.70;;
52858;SDS011;38721;53.098;6.596;2023-02-11T15:58:57;10.93;;;3.30;;
52858;SDS011;38721;53.098;6.596;2023-02-11T16:01:33;9.90;;;3.72;;
52858;SDS011;38721;53.098;6.596;2023-02-11T16:04:01;16.92;;;3.28;;
52858;SDS011;38721;53.098;6.596;2023-02-11T16:06:37;12.15;;;3.60;;
52858;SDS011;38721;53.098;6.596;2023-02-11T16:11:55;18.67;;;3.88;;
52858;SDS011;38721;53.098;6.596;2023-02-11T16:19:20;10.73;;;3.13;;
52858;SDS011;38721;53.098;6.596;2023-02-11T16:21:47;16.40;;;3.75;;
52858;SDS011;38721;53.098;6.596;2023-02-11T16:24:18;13.63;;;3.10;;
52858;SDS011;38721;53.098;6.596;2023-02-11T16:26:52;15.10;;;3.33;;
52858;SDS011;38721;53.098;6.596;2023-02-11T16:29:23;15.15;;;4.22;;
52858;SDS011;38721;53.098;6.596;2023-02-11T16:31:52;13.05;;;3.30;;
52858;SDS011;38721;53.098;6.596;2023-02-11T16:34:31;14.95;;;3.30;;
52858;SDS011;38721;53.098;6.596;2023-02-11T16:36:57;13.98;;;3.25;;
52858;SDS011;38721;53.098;6.596;2023-02-11T16:39:22;14.10;;;3.50;;
52858;SDS011;38721;53.098;6.596;2023-02-11T16:41:48;14.75;;;3.40;;
52858;SDS011;38721;53.098;6.596;2023-02-11T16:44:16;17.92;;;4.57;;
52858;SDS011;38721;53.098;6.596;2023-02-11T16:46:42;13.63;;;3.97;;
52858;SDS011;38721;53.098;6.596;2023-02-11T16:49:09;21.55;;;3.75;;
52858;SDS011;38721;53.098;6.596;2023-02-11T16:51:39;13.63;;;3.72;;
52858;SDS011;38721;53.098;6.596;2023-02-11T16:54:06;10.38;;;2.90;;
52858;SDS011;38721;53.098;6.596;2023-02-11T16:56:38;12.70;;;3.20;;
52858;SDS011;38721;53.098;6.596;2023-02-11T16:59:04;12.98;;;3.08;;
52858;SDS011;38721;53.098;6.596;2023-02-11T17:01:30;13.68;;;3.08;;
52858;SDS011;38721;53.098;6.596;2023-02-11T17:03:57;15.80;;;3.25;;
52858;SDS011;38721;53.098;6.596;2023-02-11T17:06:22;18.98;;;3.33;;
52858;SDS011;38721;53.098;6.596;2023-02-11T17:08:48;17.60;;;3.45;;
52858;SDS011;38721;53.098;6.596;2023-02-11T17:11:14;14.65;;;3.83;;
52858;SDS011;38721;53.098;6.596;2023-02-11T17:13:44;13.23;;;3.53;;
52858;SDS011;38721;53.098;6.596;2023-02-11T17:16:20;13.43;;;3.58;;
52858;SDS011;38721;53.098;6.596;2023-02-11T17:18:47;20.10;;;3.42;;
52858;SDS011;38721;53.098;6.596;2023-02-11T17:21:13;15.27;;;3.53;;
52858;SDS011;38721;53.098;6.596;2023-02-11T17:23:39;18.02;;;4.15;;
52858;SDS011;38721;53.098;6.596;2023-02-11T17:26:05;18.77;;;4.30;;
52858;SDS011;38721;53.098;6.596;2023-02-11T17:28:32;15.85;;;4.00;;